Time;durP1;ratioP1;P1;durP2;ratioP2;P2;SDS_P1;SDS_P2;PMS_P1;PMS_P2;Temp;Humidity;BMP_temperature;BMP_pressure;BME280_temperature;BME280_humidity;BME280_pressure;Samples;Min_cycle;Max_cycle;Signal;HPM_P1;HPM_P2
2022/06/19 00:00:25;;;;;;;3.17;1.30;;;;;;;18.21;63.85;100785.06;5092740;28;20035;-76
2022/06/19 00:02:50;;;;;;;4.53;1.60;;;;;;;18.14;63.99;100775.75;5092749;28;20290;-76
2022/06/19 00:05:15;;;;;;;4.00;1.77;;;;;;;18.09;64.11;100780.38;5093531;28;20032;-76
2022/06/19 00:07:42;;;;;;;2.17;1.20;;;;;;;18.10;63.67;100787.34;5092383;28;20076;-75
2022/06/19 00:10:08;;;;;;;1.67;1.05;;;;;;;18.08;64.07;100782.16;5093145;28;20430;-75
2022/06/19 00:12:34;;;;;;;1.70;0.88;;;;;;;18.06;63.60;100786.66;5092577;28;20028;-76
2022/06/19 00:14:59;;;;;;;0.83;0.80;;;;;;;18.06;63.49;100768.25;5091796;28;20119;-76
2022/06/19 00:17:25;;;;;;;2.63;1.20;;;;;;;18.00;64.19;100765.91;5092694;28;20024;-76
2022/06/19 00:19:51;;;;;;;3.77;1.30;;;;;;;17.93;64.22;100767.94;5092955;28;20020;-76
2022/06/19 00:22:17;;;;;;;2.35;1.27;;;;;;;17.89;64.04;100774.28;5092304;28;20448;-76
2022/06/19 00:24:42;;;;;;;3.70;1.40;;;;;;;17.84;64.00;100771.00;5092791;28;20111;-76
2022/06/19 00:27:07;;;;;;;4.23;1.50;;;;;;;17.74;64.20;100767.97;5093130;28;20070;-75
2022/06/19 00:29:33;;;;;;;3.17;1.40;;;;;;;17.74;63.99;100778.44;5092004;28;20050;-76
2022/06/19 00:31:58;;;;;;;3.57;1.37;;;;;;;17.67;63.97;100777.91;5092888;28;20084;-76
2022/06/19 00:34:24;;;;;;;2.17;1.27;;;;;;;17.65;63.99;100797.25;5092770;28;20039;-76
2022/06/19 00:36:50;;;;;;;2.80;1.30;;;;;;;17.61;64.00;100809.66;5091689;28;20517;-76
2022/06/19 00:39:18;;;;;;;1.90;0.90;;;;;;;17.62;63.91;100816.63;5092008;28;21504;-76
2022/06/19 00:41:44;;;;;;;2.50;1.20;;;;;;;17.60;63.87;100810.59;5092356;28;20020;-76
2022/06/19 00:44:11;;;;;;;3.78;1.45;;;;;;;17.54;63.93;100793.34;5092058;28;20368;-76
2022/06/19 00:46:53;;;;;;;2.95;1.50;;;;;;;17.47;63.80;100785.81;5092745;28;20036;-75
2022/06/19 00:49:32;;;;;;;3.25;1.42;;;;;;;17.40;63.90;100804.47;5092000;28;20451;-76
2022/06/19 00:52:10;;;;;;;5.57;1.80;;;;;;;17.26;63.55;100806.84;5092305;28;20047;-75
2022/06/19 00:54:44;;;;;;;4.35;1.60;;;;;;;17.14;63.57;100795.97;5093004;28;20035;-76
2022/06/19 00:57:12;;;;;;;4.07;1.80;;;;;;;17.06;63.59;100799.84;5092070;28;20020;-76
2022/06/19 00:59:42;;;;;;;5.70;1.90;;;;;;;16.93;63.31;100802.97;5092149;28;20476;-76
2022/06/19 01:02:07;;;;;;;4.53;1.77;;;;;;;16.85;63.38;100798.97;5092727;28;20048;-76
2022/06/19 01:04:44;;;;;;;3.37;1.50;;;;;;;16.82;63.11;100798.19;5091736;28;20039;-76
2022/06/19 01:07:10;;;;;;;2.78;1.60;;;;;;;16.77;63.06;100791.44;5092275;28;20046;-76
2022/06/19 01:09:36;;;;;;;8.03;2.10;;;;;;;16.72;63.07;100791.63;5092451;28;20024;-76
2022/06/19 01:12:03;;;;;;;4.53;1.60;;;;;;;16.71;63.07;100789.09;5091207;28;20032;-76
2022/06/19 01:14:29;;;;;;;2.30;1.30;;;;;;;16.69;62.86;100794.38;5092396;28;20103;-76
2022/06/19 01:16:54;;;;;;;3.08;1.23;;;;;;;16.70;62.80;100798.69;5092220;28;20158;-76
2022/06/19 01:19:24;;;;;;;4.37;1.57;;;;;;;16.62;62.36;100845.34;5091781;28;20031;-76
2022/06/19 01:22:27;;;;;;;7.15;2.42;;;;;;;16.44;62.84;100952.53;5091626;28;20479;-76
2022/06/19 01:25:27;;;;;;;12.48;2.58;;;;;;;16.16;62.87;100961.44;5091175;28;20491;-76
2022/06/19 01:30:45;;;;;;;7.25;1.92;;;;;;;16.07;62.92;100862.31;5096036;28;20400;-76
2022/06/19 01:33:15;;;;;;;3.88;1.70;;;;;;;16.08;62.21;100912.88;5095248;28;20027;-75
2022/06/19 01:35:43;;;;;;;10.00;2.20;;;;;;;15.66;62.70;100938.75;5095153;28;20106;-75
2022/06/19 01:38:13;;;;;;;10.23;2.13;;;;;;;15.58;62.66;100881.47;5095185;28;20054;-75
2022/06/19 01:40:41;;;;;;;9.30;2.25;;;;;;;15.53;62.55;100865.13;5093271;28;20540;-75
2022/06/19 01:43:06;;;;;;;3.90;1.88;;;;;;;15.53;62.03;100898.25;5095950;28;20111;-75
2022/06/19 01:45:32;;;;;;;12.03;2.57;;;;;;;15.36;61.57;100940.66;5095081;28;20055;-75
2022/06/19 01:47:58;;;;;;;9.13;2.30;;;;;;;15.28;61.39;100922.63;5095877;28;20028;-75
2022/06/19 01:50:27;;;;;;;9.00;2.25;;;;;;;15.28;61.44;100893.84;5095652;28;20016;-75
2022/06/19 01:52:58;;;;;;;10.57;2.15;;;;;;;15.19;61.48;100908.13;5094928;28;20028;-75
2022/06/19 01:55:28;;;;;;;6.63;2.20;;;;;;;15.16;61.05;100900.38;5096023;28;20024;-75
2022/06/19 01:57:56;;;;;;;8.90;2.20;;;;;;;15.13;61.12;100892.63;5095630;28;20412;-75
2022/06/19 02:00:25;;;;;;;7.68;2.25;;;;;;;15.11;60.81;100912.72;5094216;28;20511;-76
2022/06/19 02:03:00;;;;;;;7.22;2.00;;;;;;;15.10;60.22;100909.28;5094833;28;20055;-75
2022/06/19 02:05:25;;;;;;;8.57;2.00;;;;;;;15.05;60.68;100915.56;5095277;28;20032;-75
2022/06/19 02:07:51;;;;;;;7.03;2.00;;;;;;;15.01;59.44;100927.00;5093738;28;20377;-75
2022/06/19 02:10:16;;;;;;;6.00;2.00;;;;;;;15.02;58.76;100923.50;5095287;28;20028;-75
2022/06/19 02:12:42;;;;;;;11.63;2.10;;;;;;;14.91;58.44;100911.63;5095029;28;20070;-75
2022/06/19 02:15:11;;;;;;;4.97;1.80;;;;;;;14.96;56.86;100924.53;5094370;28;20024;-75
2022/06/19 02:17:42;;;;;;;4.18;1.80;;;;;;;14.93;57.41;100920.28;5095191;28;20024;-75
2022/06/19 02:20:09;;;;;;;5.18;1.77;;;;;;;15.00;58.09;100910.47;5094891;28;20115;-75
2022/06/19 02:22:35;;;;;;;6.00;1.73;;;;;;;15.00;57.74;100901.78;5094200;28;20054;-75
2022/06/19 02:25:01;;;;;;;5.23;1.90;;;;;;;15.01;56.97;100920.03;5094813;28;20461;-75
2022/06/19 02:27:28;;;;;;;5.35;1.83;;;;;;;14.99;57.28;100916.63;5095202;28;20043;-75
2022/06/19 02:29:54;;;;;;;4.07;1.65;;;;;;;15.01;57.64;100908.72;5094816;28;20024;-75
2022/06/19 02:32:46;;;;;;;6.28;1.80;;;;;;;14.98;56.99;100923.59;5094955;28;20183;-75
2022/06/19 02:35:21;;;;;;;6.28;1.73;;;;;;;14.97;56.63;100929.72;5093755;28;20185;-75
2022/06/19 02:37:50;;;;;;;5.68;1.80;;;;;;;14.95;56.99;100925.44;5094541;28;20028;-75
2022/06/19 02:40:53;;;;;;;5.63;1.83;;;;;;;14.95;56.79;100930.66;5094625;28;20158;-75
2022/06/19 02:43:24;;;;;;;4.53;1.75;;;;;;;14.94;55.96;100922.00;5094363;28;20039;-75
2022/06/19 02:45:49;;;;;;;7.10;1.90;;;;;;;14.93;54.69;100932.47;5094027;28;20047;-75
2022/06/19 02:48:28;;;;;;;4.80;1.67;;;;;;;14.95;55.89;100928.06;5094724;28;20055;-75
2022/06/19 02:50:55;;;;;;;4.45;1.70;;;;;;;15.00;55.92;100923.56;5093593;28;20028;-75
2022/06/19 02:53:21;;;;;;;4.68;1.30;;;;;;;15.01;54.66;100913.94;5094979;28;20069;-75
2022/06/19 02:55:47;;;;;;;8.80;1.90;;;;;;;14.94;54.72;100921.13;5092995;28;20035;-76
2022/06/19 02:58:13;;;;;;;7.68;2.15;;;;;;;14.92;55.23;100918.56;5094470;28;20357;-75
2022/06/19 03:00:39;;;;;;;7.65;2.08;;;;;;;14.91;55.68;100942.16;5093875;28;20487;-75
2022/06/19 03:03:11;;;;;;;8.03;1.97;;;;;;;14.86;56.00;101023.25;5092754;28;20044;-75
2022/06/19 03:05:36;;;;;;;8.57;1.77;;;;;;;14.83;56.41;101052.13;5094011;28;20200;-75
2022/06/19 03:08:02;;;;;;;7.33;2.07;;;;;;;14.74;56.09;101016.66;5093982;28;20480;-75
2022/06/19 03:10:30;;;;;;;5.13;1.97;;;;;;;14.74;56.25;100982.69;5093069;28;20035;-75
2022/06/19 03:12:56;;;;;;;7.10;1.60;;;;;;;14.73;56.30;100964.47;5093763;28;20464;-75
2022/06/19 03:15:22;;;;;;;4.10;1.30;;;;;;;14.76;56.99;100948.69;5093985;28;20036;-75
2022/06/19 03:17:47;;;;;;;6.90;2.00;;;;;;;14.78;56.29;100965.16;5092909;28;20073;-76
2022/06/19 03:20:16;;;;;;;3.03;1.30;;;;;;;14.75;56.38;100947.00;5093928;28;20024;-75
2022/06/19 03:22:42;;;;;;;5.30;1.55;;;;;;;14.74;55.44;100940.06;5093751;28;20031;-75
2022/06/19 03:25:07;;;;;;;3.90;1.53;;;;;;;14.77;55.21;100913.81;5093312;28;20020;-76
2022/06/19 03:27:32;;;;;;;6.27;1.70;;;;;;;14.74;54.75;100900.88;5093776;28;20024;-75
2022/06/19 03:30:00;;;;;;;4.07;1.40;;;;;;;14.70;55.03;100921.00;5093372;28;20024;-75
2022/06/19 03:32:26;;;;;;;5.13;1.50;;;;;;;14.73;54.71;100941.81;5092487;28;20491;-76
2022/06/19 03:34:52;;;;;;;5.17;1.57;;;;;;;14.62;53.85;100960.41;5093574;28;20032;-75
2022/06/19 03:37:18;;;;;;;4.32;1.42;;;;;;;14.63;54.60;100924.69;5094245;28;20031;-75
2022/06/19 03:39:43;;;;;;;3.53;1.10;;;;;;;14.64;54.46;100903.72;5092765;28;20024;-76
2022/06/19 03:42:11;;;;;;;2.33;0.98;;;;;;;14.64;54.27;100880.22;5093936;28;20048;-76
2022/06/19 03:44:37;;;;;;;4.57;1.20;;;;;;;14.63;54.10;100883.75;5092959;28;20048;-75
2022/06/19 03:47:02;;;;;;;3.13;1.30;;;;;;;14.63;53.72;100895.94;5092817;28;20369;-75
2022/06/19 03:49:28;;;;;;;3.23;1.20;;;;;;;14.62;54.35;100848.09;5093701;28;20530;-75
2022/06/19 03:51:53;;;;;;;2.40;1.40;;;;;;;14.64;54.05;100866.31;5093007;28;20052;-75
2022/06/19 03:54:18;;;;;;;3.87;1.13;;;;;;;14.62;54.07;100909.91;5093219;28;20048;-75
2022/06/19 03:56:44;;;;;;;4.77;1.20;;;;;;;14.59;53.75;100970.06;5092674;28;20107;-75
2022/06/19 03:59:12;;;;;;;6.13;1.53;;;;;;;14.50;53.39;101019.06;5092361;28;20102;-75
2022/06/19 04:01:40;;;;;;;4.45;1.20;;;;;;;14.49;53.10;100995.63;5092794;28;20051;-75
2022/06/19 04:04:05;;;;;;;3.88;1.10;;;;;;;14.49;53.31;100935.56;5093345;28;20096;-75
2022/06/19 04:06:34;;;;;;;3.90;1.03;;;;;;;14.54;51.76;100951.09;5092567;28;20032;-75
2022/06/19 04:09:00;;;;;;;2.42;1.20;;;;;;;14.49;51.82;100922.50;5093043;28;20027;-75
2022/06/19 04:11:27;;;;;;;3.47;1.13;;;;;;;14.48;52.12;100895.50;5093391;28;20106;-75
2022/06/19 04:13:53;;;;;;;1.77;0.93;;;;;;;14.49;52.21;100891.16;5091772;28;20020;-75
2022/06/19 04:16:27;;;;;;;3.22;1.23;;;;;;;14.48;53.00;100855.50;5092995;28;20107;-76
2022/06/19 04:18:54;;;;;;;4.28;1.20;;;;;;;14.54;53.14;100830.94;5092977;28;20034;-75
2022/06/19 04:21:26;;;;;;;4.07;1.30;;;;;;;14.46;53.18;100823.34;5092418;28;20027;-75
2022/06/19 04:23:54;;;;;;;4.40;1.30;;;;;;;14.45;53.80;100800.75;5092470;28;20035;-75
2022/06/19 04:26:20;;;;;;;4.00;1.15;;;;;;;14.44;54.05;100781.66;5093113;28;20082;-75
2022/06/19 04:28:46;;;;;;;5.80;1.50;;;;;;;14.35;54.53;100764.50;5073797;28;20028;-75
2022/06/19 04:31:11;;;;;;;6.17;1.60;;;;;;;14.38;54.77;100765.31;5092876;28;20372;-75
2022/06/19 04:33:40;;;;;;;4.80;1.43;;;;;;;14.32;55.12;100738.50;5092717;28;20520;-76
2022/06/19 04:36:14;;;;;;;8.93;1.70;;;;;;;14.35;55.96;100753.22;5091256;28;20403;-75
2022/06/19 04:38:41;;;;;;;6.82;1.58;;;;;;;14.38;55.84;100768.75;5092680;28;20031;-76
2022/06/19 04:41:12;;;;;;;;;;;;;;;14.33;55.81;100768.09;5093446;28;20032;-75
2022/06/19 04:43:37;;;;;;;6.60;1.50;;;;;;;14.34;55.87;100761.97;5091802;28;19912;-75
2022/06/19 04:46:04;;;;;;;4.67;1.50;;;;;;;14.39;56.23;100759.19;5092925;28;20025;-75
2022/06/19 04:48:30;;;;;;;5.90;1.67;;;;;;;14.44;56.11;100772.94;5092339;28;20024;-75
2022/06/19 04:50:56;;;;;;;5.65;1.35;;;;;;;14.49;56.16;100764.06;5092603;28;20028;-75
2022/06/19 04:53:21;;;;;;;3.87;1.20;;;;;;;14.61;55.93;100736.69;5093047;28;20020;-75
2022/06/19 04:55:46;;;;;;;4.17;1.37;;;;;;;14.68;56.77;100692.97;5091687;28;20115;-76
2022/06/19 04:58:12;;;;;;;4.60;1.50;;;;;;;14.76;56.24;100674.38;5092545;28;20020;-76
2022/06/19 05:00:40;;;;;;;6.77;1.53;;;;;;;14.77;56.43;100694.38;5092557;28;20107;-75
2022/06/19 05:03:05;;;;;;;5.28;1.58;;;;;;;14.79;56.34;100700.41;5092559;28;20047;-75
2022/06/19 05:05:30;;;;;;;5.63;1.60;;;;;;;14.69;56.22;100710.34;5096583;28;20040;-75
2022/06/19 05:07:55;;;;;;;5.77;1.60;;;;;;;14.64;56.24;100718.28;5096251;28;20123;-75
2022/06/19 05:10:21;;;;;;;4.83;1.70;;;;;;;14.69;57.10;100752.13;5096260;28;20028;-75
2022/06/19 05:12:46;;;;;;;4.30;1.40;;;;;;;14.78;56.50;100761.41;5096401;28;20053;-75
2022/06/19 05:15:11;;;;;;;2.87;1.30;;;;;;;14.88;56.42;100778.47;5097071;28;20383;-75
2022/06/19 05:17:37;;;;;;;2.43;1.17;;;;;;;14.95;56.14;100774.75;5095552;28;20020;-75
2022/06/19 05:20:03;;;;;;;4.60;1.63;;;;;;;14.98;55.94;100777.22;5095751;28;20533;-75
2022/06/19 05:22:29;;;;;;;6.13;1.55;;;;;;;14.92;55.58;100769.63;5096358;28;20036;-75
2022/06/19 05:24:54;;;;;;;5.03;1.60;;;;;;;14.93;55.53;100781.78;5095067;28;20012;-74
2022/06/19 05:27:19;;;;;;;5.37;1.57;;;;;;;15.01;55.42;100801.56;5096301;28;20020;-76
2022/06/19 05:29:45;;;;;;;5.00;1.60;;;;;;;15.05;55.50;100808.41;5096011;28;20024;-76
2022/06/19 05:32:10;;;;;;;4.90;1.60;;;;;;;15.12;55.22;100820.34;5094807;28;20020;-76
2022/06/19 05:34:37;;;;;;;4.23;1.37;;;;;;;15.18;55.34;100833.22;5095994;28;20032;-76
2022/06/19 05:37:04;;;;;;;2.80;0.90;;;;;;;15.32;55.76;100850.16;5096669;28;20111;-76
2022/06/19 05:39:29;;;;;;;1.40;0.70;;;;;;;15.48;55.71;100876.66;5095675;28;20032;-76
2022/06/19 05:41:57;;;;;;;4.37;1.50;;;;;;;15.62;55.13;100897.06;5095603;28;20020;-76
2022/06/19 05:44:26;;;;;;;6.18;1.67;;;;;;;15.73;55.05;100897.53;5095662;28;20020;-76
2022/06/19 05:46:52;;;;;;;4.45;1.17;;;;;;;15.87;55.48;100900.56;5096048;28;20471;-76
2022/06/19 05:49:17;;;;;;;1.23;0.90;;;;;;;16.10;55.56;100904.06;5095678;28;20021;-76
2022/06/19 05:51:43;;;;;;;1.20;0.73;;;;;;;16.32;55.14;100898.03;5094380;28;20024;-74
2022/06/19 05:54:09;;;;;;;1.83;0.73;;;;;;;16.49;54.73;100903.47;5096270;28;20047;-74
2022/06/19 05:56:35;;;;;;;2.45;0.88;;;;;;;16.60;54.81;100891.69;5096510;28;20077;-75
2022/06/19 05:59:00;;;;;;;2.20;0.97;;;;;;;16.67;54.12;100893.16;5095049;28;20024;-75
2022/06/19 06:01:30;;;;;;;1.87;1.03;;;;;;;16.67;53.58;100920.22;5095422;28;20544;-75
2022/06/19 06:03:56;;;;;;;5.45;1.63;;;;;;;16.67;53.64;100953.41;5095242;28;20673;-76
2022/06/19 06:06:26;;;;;;;4.50;1.45;;;;;;;16.63;54.02;100942.19;5094960;28;20035;-75
2022/06/19 06:08:52;;;;;;;4.60;1.38;;;;;;;16.59;53.41;100948.50;5095007;28;20024;-75
2022/06/19 06:11:18;;;;;;;3.22;1.20;;;;;;;16.44;53.79;100968.25;5095313;28;20024;-75
2022/06/19 06:13:44;;;;;;;2.95;1.02;;;;;;;16.39;54.84;100985.94;5092946;28;20032;-77
2022/06/19 06:16:12;;;;;;;6.30;1.42;;;;;;;16.33;54.53;100971.28;5094259;28;20456;-76
2022/06/19 06:18:38;;;;;;;7.85;1.63;;;;;;;16.26;54.71;100984.66;5095084;28;20107;-75
2022/06/19 06:21:06;;;;;;;4.70;1.43;;;;;;;16.20;55.44;100999.72;5094633;28;20052;-75
2022/06/19 06:23:32;;;;;;;1.80;0.90;;;;;;;16.26;55.61;100995.13;5095072;28;20067;-76
2022/06/19 06:26:06;;;;;;;1.30;0.60;;;;;;;16.32;55.89;101019.34;5094942;28;20055;-76
2022/06/19 06:28:32;;;;;;;2.90;1.27;;;;;;;16.27;56.48;101044.00;5094857;28;20093;-76
2022/06/19 06:30:58;;;;;;;0.70;0.70;;;;;;;16.26;57.72;101084.19;5094835;28;20028;-76
2022/06/19 06:33:24;;;;;;;4.53;1.00;;;;;;;16.16;56.73;101083.63;5095843;28;20110;-77
2022/06/19 06:35:49;;;;;;;2.00;1.17;;;;;;;16.13;57.23;101100.31;5094114;28;20028;-79
2022/06/19 06:38:14;;;;;;;2.67;0.97;;;;;;;16.10;58.55;101126.59;5093817;28;20039;-78
2022/06/19 06:40:40;;;;;;;2.97;0.60;;;;;;;16.07;58.39;101194.78;5094030;28;20027;-75
2022/06/19 06:43:08;;;;;;;1.17;0.60;;;;;;;16.03;58.42;101222.84;5094103;28;20092;-75
2022/06/19 06:45:34;;;;;;;0.30;0.30;;;;;;;16.02;59.52;101209.78;5094917;28;20032;-77
2022/06/19 06:48:00;;;;;;;0.40;0.40;;;;;;;15.97;59.89;101212.53;5093522;28;20031;-75
2022/06/19 06:50:25;;;;;;;0.40;0.20;;;;;;;15.96;59.71;101225.69;5094974;28;20071;-75
2022/06/19 06:52:51;;;;;;;0.60;0.40;;;;;;;15.91;59.79;101207.50;5094240;28;20095;-75
2022/06/19 06:55:16;;;;;;;0.20;0.20;;;;;;;15.93;60.24;101210.06;5094013;28;20107;-75
2022/06/19 06:57:42;;;;;;;0.30;0.30;;;;;;;15.95;60.72;101187.34;5094876;28;20477;-75
2022/06/19 07:00:09;;;;;;;0.10;0.10;;;;;;;15.94;60.77;101175.97;5095100;28;20023;-75
2022/06/19 07:02:34;;;;;;;0.40;0.25;;;;;;;15.98;60.64;101182.00;5093319;28;20058;-75
2022/06/19 07:04:59;;;;;;;0.40;0.30;;;;;;;16.02;60.41;101165.28;5094044;28;20028;-75
2022/06/19 07:07:25;;;;;;;0.90;0.50;;;;;;;16.06;61.65;101166.88;5093508;28;20468;-76
2022/06/19 07:09:50;;;;;;;0.40;0.40;;;;;;;16.01;63.55;101185.38;5093533;28;20032;-76
2022/06/19 07:12:15;;;;;;;1.47;0.90;;;;;;;15.86;62.10;101184.09;5094245;28;20113;-77
2022/06/19 07:14:41;;;;;;;1.90;0.83;;;;;;;15.73;62.41;101169.66;5093720;28;20044;-77
2022/06/19 07:17:06;;;;;;;3.43;0.97;;;;;;;15.62;62.25;101190.91;5093772;28;20039;-77
2022/06/19 07:19:31;;;;;;;2.97;0.83;;;;;;;15.53;63.26;101201.66;5094016;28;20019;-77
2022/06/19 07:21:57;;;;;;;0.97;0.70;;;;;;;15.47;62.24;101226.25;5093772;28;20038;-77
2022/06/19 07:24:23;;;;;;;1.40;0.63;;;;;;;15.42;63.10;101233.41;5093263;28;20024;-77
2022/06/19 07:26:48;;;;;;;1.20;0.73;;;;;;;15.36;64.39;101223.09;5093106;28;20024;-78
2022/06/19 07:29:13;;;;;;;1.57;0.63;;;;;;;15.27;64.52;101198.94;5093203;28;20034;-78
2022/06/19 07:31:39;;;;;;;3.50;1.13;;;;;;;15.16;64.89;101174.88;5092704;28;20046;-78
2022/06/19 07:34:05;;;;;;;4.23;1.10;;;;;;;15.02;68.04;101149.13;5094081;28;20369;-81
2022/06/19 07:36:30;;;;;;;5.63;1.60;;;;;;;14.75;71.10;101127.25;5093877;28;20085;-81
2022/06/19 07:38:56;;;;;;;6.40;1.70;;;;;;;14.30;72.60;101094.50;5092687;28;20040;-80
2022/06/19 07:41:21;;;;;;;10.93;2.07;;;;;;;14.04;73.64;101064.72;5093496;28;20028;-81
2022/06/19 07:43:49;;;;;;;5.63;1.70;;;;;;;13.92;73.40;101067.63;5100454;28;20413;-80
2022/06/19 07:46:14;;;;;;;6.57;1.70;;;;;;;13.82;73.22;101074.84;5094504;28;20411;-80
2022/06/19 07:51:25;;;;;;;2.10;1.10;;;;;;;13.83;75.44;101009.59;5093159;28;20093;-79
2022/06/19 07:53:50;;;;;;;2.67;1.20;;;;;;;13.87;72.68;100984.28;5093543;28;20021;-81
2022/06/19 07:56:15;;;;;;;2.00;1.00;;;;;;;13.90;75.83;101039.81;5093842;28;20066;-81
2022/06/19 07:58:41;;;;;;;2.40;1.00;;;;;;;13.92;73.13;101118.09;5092759;28;20032;-81
2022/06/19 08:01:06;;;;;;;2.07;0.80;;;;;;;14.01;74.61;101153.53;5094113;28;20031;-81
2022/06/19 08:03:32;;;;;;;2.93;1.00;;;;;;;14.09;72.48;101179.41;5092698;28;20144;-81
2022/06/19 08:05:57;;;;;;;1.20;0.80;;;;;;;14.19;72.60;101200.03;5092657;28;20081;-81
2022/06/19 08:08:27;;;;;;;1.10;0.57;;;;;;;14.30;73.76;101152.78;5086856;28;20036;-81
2022/06/19 08:10:55;;;;;;;1.13;0.70;;;;;;;14.34;72.20;101103.97;5092310;28;20063;-80
2022/06/19 08:13:23;;;;;;;0.75;0.47;;;;;;;14.42;74.02;101093.28;5089658;28;20028;-80
2022/06/19 08:15:54;;;;;;;0.77;0.57;;;;;;;14.44;73.84;101096.72;5088658;28;20043;-80
2022/06/19 08:18:19;;;;;;;1.15;0.73;;;;;;;14.40;76.03;101079.44;5088367;28;20020;-80
2022/06/19 08:20:46;;;;;;;4.63;1.23;;;;;;;14.27;75.75;101125.88;5091378;28;20145;-81
2022/06/19 08:23:13;;;;;;;1.95;0.90;;;;;;;14.25;74.37;101164.22;5093562;28;20020;-82
2022/06/19 08:25:38;;;;;;;2.80;1.00;;;;;;;14.29;79.23;101132.81;5090166;28;20024;-83
2022/06/19 08:28:04;;;;;;;9.43;2.03;;;;;;;14.21;76.95;101101.69;5072362;28;20479;-83
2022/06/19 08:30:40;;;;;;;4.53;1.40;;;;;;;14.25;75.51;101091.13;5073317;28;20024;-81
2022/06/19 08:33:07;;;;;;;3.25;1.30;;;;;;;14.33;77.96;101092.66;5072524;28;20016;-81
2022/06/19 08:35:36;;;;;;;;;;;;;;;14.44;79.46;101086.28;5072362;28;20040;-80
2022/06/19 08:38:06;;;;;;;5.63;1.35;;;;;;;14.54;80.07;101074.66;5077632;28;19913;-81
2022/06/19 08:40:50;;;;;;;10.65;2.35;;;;;;;14.52;78.44;101055.59;5080160;28;20021;-80
2022/06/19 08:43:33;;;;;;;2.80;1.48;;;;;;;14.53;79.95;101049.44;5100158;28;20050;-80
2022/06/19 08:46:33;;;;;;;8.40;2.03;;;;;;;14.49;80.77;101043.47;5100332;28;20077;-80
2022/06/19 08:49:04;;;;;;;7.97;1.98;;;;;;;14.38;80.64;101014.19;5098537;28;20077;-80
2022/06/19 08:52:12;;;;;;;5.30;1.90;;;;;;;14.37;79.62;100973.31;5099649;28;20387;-81
2022/06/19 08:54:59;;;;;;;5.78;1.63;;;;;;;14.39;81.51;100991.56;5098370;28;20111;-80
2022/06/19 08:57:36;;;;;;;7.38;2.00;;;;;;;14.40;79.31;101001.94;5100076;28;20066;-81
2022/06/19 09:00:15;;;;;;;3.05;1.40;;;;;;;14.51;79.99;101010.34;5099314;28;20024;-80
2022/06/19 09:03:09;;;;;;;4.90;1.45;;;;;;;14.64;81.06;101016.03;5098836;28;20131;-81
2022/06/19 09:05:47;;;;;;;2.75;1.67;;;;;;;14.75;80.24;101022.75;5099369;28;20475;-80
2022/06/19 09:08:25;;;;;;;6.22;1.83;;;;;;;14.79;79.22;101040.91;5099848;28;20020;-81
2022/06/19 09:10:56;;;;;;;4.45;1.80;;;;;;;14.84;77.05;101051.22;5098417;28;20036;-80
2022/06/19 09:13:56;;;;;;;6.03;2.05;;;;;;;14.87;77.86;101052.88;5100596;28;20107;-81
2022/06/19 09:16:36;;;;;;;4.10;1.90;;;;;;;15.06;77.62;101066.25;5098640;28;20389;-81
2022/06/19 09:19:15;;;;;;;6.15;1.60;;;;;;;15.39;78.13;101094.88;5099102;28;20527;-80
2022/06/19 09:22:05;;;;;;;4.10;1.73;;;;;;;15.56;76.89;101138.81;5099170;28;20369;-80
2022/06/19 09:24:36;;;;;;;5.53;1.70;;;;;;;15.52;75.21;101152.88;5098590;28;20183;-81
2022/06/19 09:27:02;;;;;;;3.15;1.25;;;;;;;15.56;75.77;101142.25;5099902;28;20024;-81
2022/06/19 09:29:36;;;;;;;2.70;1.40;;;;;;;15.69;75.84;101141.88;5100398;28;20081;-80
2022/06/19 09:32:21;;;;;;;4.15;1.40;;;;;;;15.72;74.40;101136.56;5100242;28;20022;-81
2022/06/19 09:34:49;;;;;;;2.20;1.23;;;;;;;15.71;73.97;101133.06;5100085;28;20060;-81
2022/06/19 09:37:20;;;;;;;4.30;1.70;;;;;;;15.66;73.94;101139.34;5099434;28;20020;-81
2022/06/19 09:39:48;;;;;;;2.10;1.48;;;;;;;15.73;73.74;101130.41;5099141;28;20364;-81
2022/06/19 09:42:23;;;;;;;3.88;2.00;;;;;;;15.76;74.54;101109.41;5099760;28;20027;-81
2022/06/19 09:45:06;;;;;;;6.93;2.15;;;;;;;15.65;73.44;101108.88;5097890;28;20085;-80
2022/06/19 09:48:05;;;;;;;5.90;2.05;;;;;;;15.69;73.70;101077.34;5099048;28;20384;-81
2022/06/19 09:50:52;;;;;;;4.65;1.70;;;;;;;15.87;74.33;101068.06;5096235;28;20128;-81
2022/06/19 09:53:59;;;;;;;2.88;1.50;;;;;;;16.10;73.83;101049.81;5096350;28;20021;-80
2022/06/19 09:56:57;;;;;;;2.05;1.30;;;;;;;16.33;73.07;101059.47;5096256;28;20055;-80
2022/06/19 09:59:29;;;;;;;7.70;2.20;;;;;;;16.35;70.06;101062.88;5080640;28;20484;-81
2022/06/19 10:01:59;;;;;;;6.15;2.10;;;;;;;16.22;71.97;101054.63;5095530;28;20040;-81
2022/06/19 10:04:33;;;;;;;3.58;1.50;;;;;;;16.35;73.49;101041.94;5094305;28;20082;-80
2022/06/19 10:07:02;;;;;;;2.80;1.50;;;;;;;16.47;70.74;101025.78;5094857;28;20024;-81
2022/06/19 10:09:34;;;;;;;8.40;2.35;;;;;;;16.40;68.21;101023.44;5095003;28;20131;-82
2022/06/19 10:12:02;;;;;;;5.82;2.03;;;;;;;16.52;69.61;101017.75;5093632;28;20051;-81
2022/06/19 10:14:36;;;;;;;3.67;1.60;;;;;;;16.73;69.70;101012.59;5095350;28;20418;-81
2022/06/19 10:17:39;;;;;;;3.28;1.40;;;;;;;17.08;68.56;101013.88;5095529;28;20115;-81
2022/06/19 10:20:16;;;;;;;4.00;1.50;;;;;;;17.26;67.88;101008.81;5004771;28;20036;-81
2022/06/19 10:22:52;;;;;;;3.75;1.65;;;;;;;17.37;66.11;100996.09;5094701;28;20509;-82
2022/06/19 10:25:42;;;;;;;3.13;1.45;;;;;;;17.48;66.45;100981.69;5095031;28;20039;-81
2022/06/19 10:28:33;;;;;;;4.88;1.55;;;;;;;17.67;64.68;100992.25;5095136;28;20111;-82
2022/06/19 10:31:23;;;;;;;8.45;1.90;;;;;;;17.72;64.70;100980.63;5095096;28;20044;-84
2022/06/19 10:34:18;;;;;;;3.58;1.20;;;;;;;17.75;63.98;100983.13;5093250;28;20447;-81
2022/06/19 10:37:05;;;;;;;4.73;1.70;;;;;;;17.94;62.00;101013.00;5095042;28;20028;-82
2022/06/19 10:39:53;;;;;;;2.22;1.13;;;;;;;18.16;64.16;101026.06;5095501;28;20380;-80
2022/06/19 10:42:31;;;;;;;1.13;0.90;;;;;;;18.44;64.09;101020.41;5095687;28;20029;-81
2022/06/19 10:45:08;;;;;;;3.72;1.30;;;;;;;18.50;60.95;101008.75;5094492;28;20040;-80
2022/06/19 10:47:49;;;;;;;3.50;1.15;;;;;;;18.51;61.28;101002.59;5093906;28;20491;-80
2022/06/19 10:50:44;;;;;;;3.78;1.65;;;;;;;18.34;58.14;101000.72;5094921;28;20115;-80
2022/06/19 10:53:27;;;;;;;3.13;1.33;;;;;;;18.32;59.54;101010.44;5095514;28;20483;-80
2022/06/19 10:56:02;;;;;;;1.90;1.17;;;;;;;18.41;59.76;101022.31;5094033;28;20036;-80
2022/06/19 10:58:30;;;;;;;2.35;1.20;;;;;;;18.59;58.92;101033.78;5093923;28;20047;-80
2022/06/19 11:01:01;;;;;;;1.65;0.75;;;;;;;18.72;60.02;101053.31;5092341;28;20469;-79
2022/06/19 11:06:45;;;;;;;2.55;1.23;;;;;;;18.91;56.80;101061.22;5094763;28;20062;-80
2022/06/19 11:09:29;;;;;;;1.75;0.82;;;;;;;18.96;57.35;101061.88;5093619;28;20028;-80
2022/06/19 11:11:57;;;;;;;2.72;1.30;;;;;;;19.00;59.19;101062.56;5093403;28;20442;-80
2022/06/19 11:14:26;;;;;;;5.95;1.63;;;;;;;19.03;54.90;101062.44;5093921;28;20027;-81
2022/06/19 11:17:05;;;;;;;2.95;1.10;;;;;;;19.06;55.56;101053.53;5092948;28;20036;-81
2022/06/19 11:19:30;;;;;;;2.42;1.40;;;;;;;19.19;57.82;101069.59;5088003;28;20051;-79
2022/06/19 11:21:56;;;;;;;2.10;1.20;;;;;;;19.29;58.55;101074.34;5093762;28;20440;-79
2022/06/19 11:24:30;;;;;;;1.37;0.90;;;;;;;19.50;59.78;101094.44;5093486;28;20024;-79
2022/06/19 11:26:57;;;;;;;3.30;1.60;;;;;;;19.56;57.88;101094.09;5093661;28;20032;-79
2022/06/19 11:29:26;;;;;;;2.50;1.00;;;;;;;19.66;58.81;101084.81;5093065;28;20024;-80
2022/06/19 11:32:13;;;;;;;1.05;0.82;;;;;;;19.89;58.91;101083.72;5093146;28;20119;-80
2022/06/19 11:34:47;;;;;;;1.92;1.10;;;;;;;20.09;56.29;101081.00;5093242;28;20468;-80
2022/06/19 11:37:25;;;;;;;2.03;1.25;;;;;;;20.15;52.86;101099.94;5092914;28;20024;-78
2022/06/19 11:40:14;;;;;;;5.55;1.70;;;;;;;19.93;53.33;101091.47;5093606;28;20484;-79
2022/06/19 11:42:48;;;;;;;6.32;1.80;;;;;;;19.70;55.62;101098.72;5092915;28;20058;-79
2022/06/19 11:45:14;;;;;;;3.53;1.40;;;;;;;19.79;57.16;101092.97;5092974;28;20388;-79
2022/06/19 11:47:47;;;;;;;3.57;1.60;;;;;;;20.06;53.25;101103.06;5093222;28;20028;-79